Time;durP1;ratioP1;P1;durP2;ratioP2;P2;SDS_P1;SDS_P2;PMS_P1;PMS_P2;Temp;Humidity;BMP_temperature;BMP_pressure;BME280_temperature;BME280_humidity;BME280_pressure;Samples;Min_cycle;Max_cycle;Signal;HPM_P1;HPM_P2
2023/04/19 00:01:40;;;;;;;11.02;5.85;;;6.80;99.90;;;;;;5070265;28;20504;-81
2023/04/19 00:04:07;;;;;;;9.70;5.75;;;6.80;99.90;;;;;;5052658;28;20044;-80
2023/04/19 00:06:34;;;;;;;11.07;6.40;;;6.90;99.90;;;;;;5062023;28;20052;-85
2023/04/19 00:08:59;;;;;;;8.48;5.68;;;6.80;99.90;;;;;;5057899;28;20044;-82
2023/04/19 00:11:25;;;;;;;9.57;5.60;;;6.80;99.90;;;;;;5055131;28;20070;-80
2023/04/19 00:13:50;;;;;;;11.95;6.28;;;6.80;99.90;;;;;;5045355;28;20043;-81
2023/04/19 00:16:16;;;;;;;13.07;7.00;;;6.70;99.90;;;;;;5082820;28;20051;-81
2023/04/19 00:18:42;;;;;;;10.38;6.47;;;6.70;99.90;;;;;;5055405;28;20144;-82
2023/04/19 00:21:08;;;;;;;12.40;6.28;;;6.70;1.00;;;;;;5058218;28;20548;-81
2023/04/19 00:23:34;;;;;;;11.50;6.40;;;6.70;1.00;;;;;;5052896;28;20120;-81
2023/04/19 00:26:03;;;;;;;9.40;5.97;;;6.70;99.90;;;;;;5068917;28;20082;-81
2023/04/19 00:28:28;;;;;;;11.27;6.97;;;6.60;99.90;;;;;;5052605;28;20044;-81
2023/04/19 00:30:54;;;;;;;11.45;6.60;;;6.70;99.90;;;;;;5036061;28;20478;-83
2023/04/19 00:33:20;;;;;;;12.77;6.15;;;6.60;99.90;;;;;;5074180;28;20040;-81
2023/04/19 00:35:46;;;;;;;9.43;5.50;;;6.60;99.90;;;;;;5053283;28;20570;-80
2023/04/19 00:38:11;;;;;;;9.23;6.05;;;6.50;99.90;;;;;;5037068;28;20048;-82
2023/04/19 00:40:37;;;;;;;10.32;6.22;;;6.90;99.90;;;;;;5051754;28;20142;-82
2023/04/19 00:43:03;;;;;;;9.55;6.05;;;6.50;99.90;;;;;;5070224;28;20126;-81
2023/04/19 00:45:31;;;;;;;9.75;5.90;;;6.50;99.90;;;;;;5070624;28;20040;-81
2023/04/19 00:47:56;;;;;;;9.75;5.70;;;6.60;1.00;;;;;;5055334;28;20050;-81
2023/04/19 00:50:22;;;;;;;10.73;6.15;;;6.50;99.90;;;;;;5034615;28;20056;-81
2023/04/19 00:52:49;;;;;;;13.07;6.80;;;6.50;99.90;;;;;;5053493;28;20135;-84
2023/04/19 00:55:15;;;;;;;10.73;5.93;;;6.90;99.90;;;;;;5060229;28;20048;-84
2023/04/19 00:57:41;;;;;;;12.68;6.43;;;6.60;99.90;;;;;;5060275;28;20123;-81
2023/04/19 01:00:08;;;;;;;11.13;6.18;;;6.40;99.90;;;;;;5068878;28;20093;-81
2023/04/19 01:02:35;;;;;;;11.70;6.40;;;6.60;99.90;;;;;;5040042;28;20047;-81
2023/04/19 01:05:01;;;;;;;11.75;6.10;;;6.70;99.90;;;;;;5073718;28;20091;-81
2023/04/19 01:07:27;;;;;;;9.82;6.45;;;6.60;99.90;;;;;;5065926;28;20047;-87
2023/04/19 01:09:52;;;;;;;9.93;6.10;;;6.90;99.90;;;;;;5055205;28;20051;-81
2023/04/19 01:12:18;;;;;;;13.48;6.25;;;6.50;99.90;;;;;;5072251;28;20474;-81
2023/04/19 01:14:44;;;;;;;12.27;5.95;;;6.70;99.90;;;;;;5057870;28;20043;-81
2023/04/19 01:17:12;;;;;;;10.32;5.72;;;6.50;99.90;;;;;;5056829;28;20044;-81
2023/04/19 01:19:38;;;;;;;11.20;5.97;;;6.60;99.90;;;;;;5060125;28;20481;-84
2023/04/19 01:22:05;;;;;;;8.70;5.78;;;6.70;99.90;;;;;;5067910;28;20047;-81
2023/04/19 01:24:31;;;;;;;12.48;6.45;;;6.80;99.90;;;;;;5066023;28;20050;-85
2023/04/19 01:26:56;;;;;;;9.63;6.28;;;6.80;99.90;;;;;;5049579;28;20056;-82
2023/04/19 01:29:22;;;;;;;13.82;6.90;;;6.80;99.90;;;;;;5071096;28;20056;-81
2023/04/19 01:31:52;;;;;;;13.15;7.13;;;6.40;99.90;;;;;;5036455;28;20056;-81
2023/04/19 01:34:18;;;;;;;13.98;6.80;;;6.40;99.90;;;;;;5072841;28;20471;-82
2023/04/19 01:36:44;;;;;;;15.63;7.53;;;6.40;1.00;;;;;;5044110;28;20397;-81
2023/04/19 01:39:10;;;;;;;19.23;7.10;;;6.40;1.00;;;;;;5070535;28;20048;-81
2023/04/19 01:41:36;;;;;;;11.75;7.13;;;6.40;1.00;;;;;;5053441;28;20048;-80
2023/04/19 01:44:02;;;;;;;11.73;6.72;;;6.40;1.00;;;;;;5071452;28;20106;-80
2023/04/19 01:46:28;;;;;;;12.13;7.25;;;6.20;1.00;;;;;;5043099;28;20409;-81
2023/04/19 01:48:54;;;;;;;11.82;7.35;;;6.30;1.00;;;;;;5032670;28;20067;-82
2023/04/19 01:51:20;;;;;;;13.48;7.80;;;6.40;1.00;;;;;;5068801;28;20048;-81
2023/04/19 01:53:51;;;;;;;13.15;7.65;;;6.40;1.00;;;;;;5069205;28;20052;-81
2023/04/19 01:56:17;;;;;;;15.10;7.57;;;6.40;1.00;;;;;;5053115;28;20062;-82
2023/04/19 01:58:43;;;;;;;14.63;8.13;;;6.30;1.00;;;;;;5027761;28;20051;-81
2023/04/19 02:01:11;;;;;;;15.80;8.48;;;6.10;1.00;;;;;;5070018;28;20068;-80
2023/04/19 02:03:38;;;;;;;17.35;8.30;;;6.10;1.00;;;;;;5052539;28;20044;-82
2023/04/19 02:06:03;;;;;;;17.00;8.77;;;6.20;1.00;;;;;;5063845;28;20036;-82
2023/04/19 02:08:29;;;;;;;15.40;8.80;;;6.20;1.00;;;;;;5042355;28;20043;-80
2023/04/19 02:10:55;;;;;;;16.55;8.57;;;6.20;1.00;;;;;;5073580;28;20127;-81
2023/04/19 02:13:21;;;;;;;16.38;8.88;;;6.40;1.00;;;;;;5040681;28;20123;-81
2023/04/19 02:15:46;;;;;;;14.05;8.13;;;6.20;1.00;;;;;;5079954;28;20378;-80
2023/04/19 02:18:12;;;;;;;15.02;8.80;;;6.20;1.00;;;;;;5052432;28;20102;-82
2023/04/19 02:20:38;;;;;;;15.88;8.48;;;6.10;1.00;;;;;;5069083;28;20047;-81
2023/04/19 02:23:04;;;;;;;15.30;9.10;;;6.20;1.00;;;;;;5067968;28;20046;-80
2023/04/19 02:25:30;;;;;;;14.48;8.23;;;6.20;1.00;;;;;;5052170;28;20044;-80
2023/04/19 02:27:56;;;;;;;15.02;8.02;;;6.20;1.00;;;;;;5037095;28;20270;-80
2023/04/19 02:30:22;;;;;;;15.75;9.15;;;6.00;1.00;;;;;;5051994;28;20265;-82
2023/04/19 02:32:48;;;;;;;19.65;9.10;;;6.00;1.00;;;;;;5084377;28;20093;-80
2023/04/19 02:35:14;;;;;;;18.55;9.68;;;6.10;1.00;;;;;;5035734;28;20485;-81
2023/04/19 02:37:40;;;;;;;17.90;9.07;;;5.80;1.00;;;;;;5073744;28;20086;-81
2023/04/19 02:40:06;;;;;;;16.85;8.80;;;5.90;1.00;;;;;;5072637;28;20122;-80
2023/04/19 02:42:32;;;;;;;19.02;8.88;;;5.90;1.00;;;;;;5044187;28;20056;-82
2023/04/19 02:44:58;;;;;;;15.13;8.68;;;6.00;1.00;;;;;;5052210;28;20138;-82
2023/04/19 02:47:23;;;;;;;14.85;8.38;;;5.80;1.00;;;;;;5050713;28;20046;-80
2023/04/19 02:49:49;;;;;;;17.55;8.43;;;5.90;1.00;;;;;;5045863;28;20077;-80
2023/04/19 02:52:15;;;;;;;15.55;9.00;;;5.70;1.00;;;;;;5061173;28;20053;-80
2023/04/19 02:54:41;;;;;;;14.77;8.73;;;5.60;1.00;;;;;;5080022;28;20456;-84
2023/04/19 02:57:06;;;;;;;20.90;8.52;;;5.90;1.00;;;;;;5064148;28;20055;-80
2023/04/19 02:59:32;;;;;;;15.00;8.00;;;5.70;1.00;;;;;;5064290;28;20047;-82
2023/04/19 03:01:58;;;;;;;16.80;8.50;;;5.80;1.00;;;;;;5038828;28;20052;-83
2023/04/19 03:04:23;;;;;;;16.10;7.68;;;5.70;1.00;;;;;;5057629;28;20043;-81
2023/04/19 03:06:49;;;;;;;12.68;7.68;;;5.80;1.00;;;;;;5063188;28;20512;-80
2023/04/19 03:09:15;;;;;;;16.58;9.80;;;5.40;1.00;;;;;;5073632;28;20184;-80
2023/04/19 03:11:41;;;;;;;16.58;8.15;;;5.50;1.00;;;;;;5048141;28;20066;-80
2023/04/19 03:14:06;;;;;;;14.85;7.50;;;5.50;1.00;;;;;;5040647;28;20486;-80
2023/04/19 03:16:32;;;;;;;14.50;7.55;;;5.60;1.00;;;;;;5036528;28;20052;-82
2023/04/19 03:18:58;;;;;;;12.60;6.88;;;5.80;1.00;;;;;;5037962;28;20051;-80
2023/04/19 03:21:26;;;;;;;13.68;7.40;;;5.40;1.00;;;;;;5056335;28;20946;-82
2023/04/19 03:23:53;;;;;;;14.75;6.88;;;5.20;1.00;;;;;;5044993;28;20301;-81
2023/04/19 03:26:18;;;;;;;10.52;6.45;;;5.30;1.00;;;;;;5054675;28;20052;-81
2023/04/19 03:28:44;;;;;;;11.02;6.68;;;5.30;1.00;;;;;;5051685;28;20044;-86
2023/04/19 03:31:10;;;;;;;11.15;6.72;;;5.30;1.00;;;;;;5051082;28;20488;-80
2023/04/19 03:33:35;;;;;;;12.02;6.60;;;5.20;1.00;;;;;;5035566;28;20040;-80
2023/04/19 03:36:01;;;;;;;13.13;7.15;;;5.40;1.00;;;;;;5049524;28;20499;-81
2023/04/19 03:38:27;;;;;;;14.27;7.00;;;5.20;1.00;;;;;;5063942;28;20051;-83
2023/04/19 03:40:54;;;;;;;14.02;7.10;;;5.20;1.00;;;;;;5070391;28;20056;-81
2023/04/19 03:43:21;;;;;;;11.23;6.55;;;5.30;1.00;;;;;;5084033;28;20511;-83
2023/04/19 03:45:46;;;;;;;9.95;6.22;;;5.10;99.90;;;;;;5053925;28;20051;-83
2023/04/19 03:48:12;;;;;;;12.50;7.32;;;4.90;99.90;;;;;;5071070;28;20054;-82
2023/04/19 03:50:38;;;;;;;12.70;6.60;;;5.10;99.90;;;;;;5067778;28;20051;-80
2023/04/19 03:53:06;;;;;;;13.25;6.63;;;5.00;99.90;;;;;;5049939;28;20514;-80
2023/04/19 03:55:32;;;;;;;12.68;6.57;;;5.00;99.90;;;;;;5074156;28;20048;-82
2023/04/19 03:57:58;;;;;;;11.93;6.53;;;5.30;99.90;;;;;;5071697;28;20055;-82
2023/04/19 04:00:23;;;;;;;11.98;6.47;;;4.80;1.00;;;;;;5075221;28;20056;-80
2023/04/19 04:02:49;;;;;;;11.85;7.00;;;4.80;1.00;;;;;;5076375;28;20110;-84
2023/04/19 04:05:15;;;;;;;11.95;7.07;;;4.90;1.00;;;;;;5066374;28;20051;-80
2023/04/19 04:07:41;;;;;;;12.13;6.65;;;4.90;99.90;;;;;;5061317;28;20643;-81
2023/04/19 04:10:07;;;;;;;13.32;6.65;;;4.80;99.90;;;;;;5046672;28;20082;-80
2023/04/19 04:12:33;;;;;;;8.68;6.03;;;4.50;99.90;;;;;;5050281;28;20059;-80
2023/04/19 04:14:58;;;;;;;13.18;6.82;;;5.00;99.90;;;;;;5043087;28;20048;-84
2023/04/19 04:17:24;;;;;;;13.68;7.32;;;4.40;1.00;;;;;;5074096;28;20545;-80
2023/04/19 04:19:50;;;;;;;11.65;6.63;;;4.80;1.00;;;;;;5055944;28;20040;-83
2023/04/19 04:22:16;;;;;;;12.48;6.82;;;4.40;1.00;;;;;;5040803;28;20098;-81
2023/04/19 04:24:42;;;;;;;12.57;6.45;;;4.90;1.00;;;;;;5055738;28;20095;-84
2023/04/19 04:27:09;;;;;;;11.50;6.20;;;4.50;1.00;;;;;;5051274;28;20059;-81
2023/04/19 04:29:36;;;;;;;11.68;6.30;;;4.60;1.00;;;;;;5047817;28;20051;-81
2023/04/19 04:32:09;;;;;;;14.23;6.65;;;4.30;1.00;;;;;;5066347;28;20537;-81
2023/04/19 04:34:36;;;;;;;14.30;6.63;;;4.40;1.00;;;;;;5066103;28;20403;-81
2023/04/19 04:37:02;;;;;;;12.02;6.47;;;4.50;1.00;;;;;;5054967;28;20048;-80
2023/04/19 04:39:29;;;;;;;12.82;6.80;;;4.70;99.90;;;;;;5083985;28;20421;-81
2023/04/19 04:41:56;;;;;;;10.90;6.15;;;4.50;99.90;;;;;;5068788;28;20040;-85
2023/04/19 04:44:22;;;;;;;12.00;5.82;;;4.30;99.90;;;;;;5070512;28;20551;-81
2023/04/19 04:46:48;;;;;;;12.75;5.93;;;4.50;99.90;;;;;;5063322;28;20152;-80
2023/04/19 04:49:14;;;;;;;11.10;6.10;;;4.30;99.90;;;;;;5053277;28;20071;-80
2023/04/19 04:51:40;;;;;;;13.82;6.20;;;4.50;99.90;;;;;;5057792;28;20052;-82
2023/04/19 04:54:05;;;;;;;12.27;5.53;;;4.50;99.90;;;;;;5072333;28;20043;-78
2023/04/19 04:56:31;;;;;;;9.80;5.57;;;4.50;99.90;;;;;;5066922;28;20032;-77
2023/04/19 04:58:58;;;;;;;11.60;5.85;;;4.10;99.90;;;;;;5067294;28;20109;-80
2023/04/19 05:01:23;;;;;;;11.35;6.00;;;4.10;99.90;;;;;;5065641;28;20048;-76
2023/04/19 05:03:50;;;;;;;10.65;5.90;;;4.30;99.90;;;;;;5074770;28;20074;-78
2023/04/19 05:06:15;;;;;;;10.00;5.90;;;4.40;99.90;;;;;;5051495;28;20102;-78
2023/04/19 05:08:41;;;;;;;8.93;5.25;;;4.20;99.90;;;;;;5019986;28;20055;-78
2023/04/19 05:11:07;;;;;;;10.80;5.07;;;5.00;99.90;;;;;;5055400;28;20044;-79
2023/04/19 05:13:33;;;;;;;12.07;5.28;;;4.90;99.90;;;;;;5043111;28;20044;-78
2023/04/19 05:15:59;;;;;;;8.93;5.57;;;4.10;99.90;;;;;;5068922;28;20074;-81
2023/04/19 05:18:24;;;;;;;10.98;5.97;;;4.40;99.90;;;;;;5068532;28;20139;-78
2023/04/19 05:20:50;;;;;;;9.88;5.72;;;4.60;99.90;;;;;;5054877;28;20044;-79
2023/04/19 05:23:17;;;;;;;10.05;5.38;;;4.60;99.90;;;;;;5052033;28;20036;-79
2023/04/19 05:25:43;;;;;;;9.18;5.45;;;4.60;99.90;;;;;;5059551;28;20048;-77
2023/04/19 05:28:08;;;;;;;11.88;6.38;;;4.40;99.90;;;;;;5034936;28;20047;-78
2023/04/19 05:30:34;;;;;;;12.38;5.22;;;4.80;99.90;;;;;;5037523;28;20164;-78
2023/04/19 05:33:00;;;;;;;10.07;5.10;;;4.80;99.90;;;;;;5049286;28;20134;-84
2023/04/19 05:35:25;;;;;;;7.97;4.72;;;5.00;99.90;;;;;;5053009;28;20055;-76
2023/04/19 05:37:51;;;;;;;7.78;4.57;;;5.00;99.90;;;;;;5037287;28;20051;-77
2023/04/19 05:40:18;;;;;;;10.52;4.90;;;5.60;99.90;;;;;;5077928;28;20100;-79
2023/04/19 05:42:44;;;;;;;8.82;4.75;;;5.30;99.90;;;;;;5073411;28;20048;-79
2023/04/19 05:45:10;;;;;;;9.40;5.05;;;5.70;99.90;;;;;;5076592;28;20055;-78
2023/04/19 05:47:36;;;;;;;10.68;4.75;;;5.60;99.90;;;;;;5035259;28;20071;-78
2023/04/19 05:50:02;;;;;;;13.15;4.22;;;6.10;99.90;;;;;;5078389;28;20059;-85
2023/04/19 05:52:28;;;;;;;6.93;4.53;;;5.80;99.90;;;;;;5062408;28;20091;-79
2023/04/19 05:54:54;;;;;;;8.95;4.38;;;6.10;99.90;;;;;;5037913;28;20076;-79
2023/04/19 05:57:20;;;;;;;6.70;4.45;;;6.40;99.90;;;;;;5033130;28;20114;-79
2023/04/19 05:59:46;;;;;;;6.03;3.97;;;6.60;99.90;;;;;;5070868;28;20039;-79
2023/04/19 06:02:11;;;;;;;7.05;4.25;;;6.70;99.90;;;;;;5066967;28;20045;-79
2023/04/19 06:04:37;;;;;;;8.18;3.75;;;6.80;99.90;;;;;;5088232;28;20050;-79
2023/04/19 06:07:03;;;;;;;6.03;3.45;;;7.10;99.90;;;;;;5048001;28;20094;-79
2023/04/19 06:09:28;;;;;;;6.40;3.90;;;7.20;99.90;;;;;;5070909;28;20089;-81
2023/04/19 06:11:55;;;;;;;7.10;4.25;;;7.30;99.90;;;;;;5051127;28;20048;-79
2023/04/19 06:14:21;;;;;;;7.03;3.83;;;7.50;99.90;;;;;;5062286;28;20135;-78
2023/04/19 06:16:47;;;;;;;7.38;3.97;;;7.50;99.90;;;;;;5069594;28;20127;-80
2023/04/19 06:19:13;;;;;;;7.80;3.47;;;7.70;99.90;;;;;;5038374;28;20132;-79
2023/04/19 06:21:41;;;;;;;7.93;3.80;;;7.80;99.90;;;;;;5037784;28;20052;-79
2023/04/19 06:24:07;;;;;;;5.85;3.45;;;8.00;99.90;;;;;;5037085;28;20040;-84
2023/04/19 06:26:32;;;;;;;4.78;3.42;;;8.00;99.90;;;;;;5052362;28;20059;-79
2023/04/19 06:28:58;;;;;;;6.20;3.83;;;8.00;99.90;;;;;;5058025;28;20085;-79
2023/04/19 06:31:24;;;;;;;6.22;3.53;;;8.00;99.90;;;;;;5074604;28;20032;-79
2023/04/19 06:33:50;;;;;;;4.60;3.35;;;7.90;99.90;;;;;;5057396;28;20036;-79
2023/04/19 06:36:16;;;;;;;5.25;3.47;;;8.40;97.30;;;;;;5072880;28;20427;-79
2023/04/19 06:38:43;;;;;;;6.30;3.30;;;8.10;80.40;;;;;;5074657;28;20044;-79
2023/04/19 06:41:09;;;;;;;5.35;3.58;;;8.10;62.50;;;;;;5060340;28;20050;-83
2023/04/19 06:43:35;;;;;;;4.75;3.17;;;8.00;59.40;;;;;;5037391;28;20044;-79
2023/04/19 06:46:03;;;;;;;6.80;3.20;;;8.00;52.70;;;;;;5023678;28;20051;-79
2023/04/19 06:48:29;;;;;;;6.07;3.17;;;8.00;57.20;;;;;;5054058;28;20048;-79
2023/04/19 06:50:56;;;;;;;5.72;2.95;;;8.10;40.40;;;;;;5066804;28;20098;-78
2023/04/19 06:53:22;;;;;;;9.38;3.17;;;8.10;32.80;;;;;;5064296;28;20757;-79
2023/04/19 06:55:48;;;;;;;4.85;3.00;;;8.30;29.50;;;;;;5073781;28;20047;-79
2023/04/19 06:58:14;;;;;;;3.92;2.70;;;8.10;23.50;;;;;;5073852;28;20044;-80
2023/04/19 07:00:39;;;;;;;6.40;3.30;;;8.20;27.20;;;;;;5057112;28;20036;-78
2023/04/19 07:03:05;;;;;;;4.68;2.83;;;8.10;28.90;;;;;;5076184;28;20047;-79
2023/04/19 07:05:31;;;;;;;4.95;2.92;;;8.10;22.90;;;;;;5054585;28;20044;-78
2023/04/19 07:07:57;;;;;;;3.40;2.30;;;8.10;10.20;;;;;;5057814;28;20565;-79
2023/04/19 07:10:23;;;;;;;4.20;2.47;;;8.10;1.00;;;;;;5056834;28;21001;-79
2023/04/19 07:12:49;;;;;;;5.15;2.47;;;8.10;1.00;;;;;;5073347;28;20080;-79
2023/04/19 07:15:15;;;;;;;4.85;2.83;;;8.10;1.00;;;;;;5072389;28;21365;-83
2023/04/19 07:17:41;;;;;;;4.03;2.70;;;8.10;1.00;;;;;;5073905;28;20587;-78
2023/04/19 07:20:08;;;;;;;5.13;2.75;;;8.20;1.00;;;;;;5056187;28;20158;-78
2023/04/19 07:22:34;;;;;;;5.68;2.65;;;7.90;1.00;;;;;;5056194;28;20178;-79
2023/04/19 07:25:00;;;;;;;5.32;2.38;;;8.00;1.00;;;;;;5072959;28;21167;-79
2023/04/19 07:27:26;;;;;;;3.85;2.20;;;8.10;1.00;;;;;;5073536;28;20056;-78
2023/04/19 07:29:52;;;;;;;5.63;2.25;;;8.00;1.00;;;;;;5056469;28;20047;-79
2023/04/19 07:32:18;;;;;;;3.65;2.40;;;8.20;1.00;;;;;;5056753;28;20048;-79
2023/04/19 07:34:44;;;;;;;8.27;2.40;;;8.20;1.00;;;;;;5060410;28;20040;-78
2023/04/19 07:37:11;;;;;;;4.60;2.47;;;8.40;1.00;;;;;;5063740;28;20051;-78
2023/04/19 07:39:37;;;;;;;4.07;2.45;;;8.20;1.00;;;;;;5020447;28;20044;-83
2023/04/19 07:42:03;;;;;;;3.10;2.05;;;8.10;1.00;;;;;;5031214;28;20066;-79
2023/04/19 07:44:29;;;;;;;3.95;2.55;;;8.30;1.00;;;;;;5069374;28;20040;-78
2023/04/19 07:46:54;;;;;;;5.93;2.00;;;8.30;1.00;;;;;;5054698;28;20072;-79
2023/04/19 07:49:20;;;;;;;3.75;2.45;;;8.30;1.00;;;;;;5041909;28;20051;-79
2023/04/19 07:51:46;;;;;;;4.75;2.20;;;8.50;1.00;;;;;;5081475;28;20779;-78
2023/04/19 07:54:12;;;;;;;4.72;2.47;;;8.50;1.00;;;;;;5027073;28;20101;-83
2023/04/19 07:56:37;;;;;;;3.42;2.22;;;8.50;1.00;;;;;;5056645;28;20113;-79
2023/04/19 07:59:03;;;;;;;7.97;2.70;;;8.70;1.00;;;;;;5021269;28;20047;-78
2023/04/19 08:01:29;;;;;;;3.65;2.08;;;8.60;1.00;;;;;;5058802;28;20044;-77
2023/04/19 08:03:55;;;;;;;4.75;2.67;;;8.70;1.00;;;;;;5055655;28;20180;-78
2023/04/19 08:06:20;;;;;;;3.40;2.08;;;8.70;1.00;;;;;;5069697;28;20044;-84
2023/04/19 08:08:47;;;;;;;4.28;2.90;;;8.60;1.00;;;;;;5055647;28;20044;-78
2023/04/19 08:11:13;;;;;;;3.80;2.13;;;8.80;1.00;;;;;;5072875;28;20056;-80
2023/04/19 08:13:39;;;;;;;6.97;2.78;;;8.90;1.00;;;;;;5067479;28;20055;-79
2023/04/19 08:16:05;;;;;;;4.22;2.22;;;8.90;1.00;;;;;;5060884;28;20046;-79
2023/04/19 08:18:32;;;;;;;3.75;2.20;;;8.80;1.00;;;;;;5059267;28;20482;-78
2023/04/19 08:20:57;;;;;;;3.72;2.22;;;9.10;1.00;;;;;;5072283;28;20052;-79
2023/04/19 08:23:23;;;;;;;4.38;3.42;;;9.10;1.00;;;;;;5050739;28;20043;-84
2023/04/19 08:25:49;;;;;;;6.65;2.38;;;9.10;1.00;;;;;;5056191;28;20048;-78
2023/04/19 08:28:17;;;;;;;2.97;2.00;;;9.10;1.00;;;;;;5071728;28;20044;-79
2023/04/19 08:30:42;;;;;;;7.40;2.20;;;9.20;1.00;;;;;;5055484;28;20205;-80
2023/04/19 08:33:09;;;;;;;4.13;2.08;;;9.30;1.00;;;;;;5042513;28;20484;-81
2023/04/19 08:35:36;;;;;;;3.70;2.20;;;9.50;1.00;;;;;;5055433;28;20047;-78
2023/04/19 08:38:03;;;;;;;4.40;2.05;;;9.60;1.00;;;;;;5051870;28;20044;-79
2023/04/19 08:40:32;;;;;;;5.22;2.63;;;9.60;1.00;;;;;;5035636;28;20056;-78
2023/04/19 08:42:58;;;;;;;2.85;2.20;;;9.80;1.00;;;;;;5057138;28;20520;-79
2023/04/19 08:45:27;;;;;;;3.67;1.70;;;10.00;1.00;;;;;;5060673;28;20052;-79
2023/04/19 08:47:55;;;;;;;3.42;1.50;;;10.10;1.00;;;;;;5052313;28;20470;-79
2023/04/19 08:50:22;;;;;;;3.40;1.90;;;10.20;1.00;;;;;;5050844;28;20056;-78
2023/04/19 08:52:47;;;;;;;4.45;1.95;;;10.30;1.00;;;;;;5065693;28;20086;-79
2023/04/19 08:55:15;;;;;;;2.92;2.17;;;10.20;1.00;;;;;;5068505;28;20048;-79
2023/04/19 08:57:41;;;;;;;2.72;1.63;;;10.60;1.00;;;;;;5068175;28;20048;-79
2023/04/19 09:00:09;;;;;;;4.25;1.65;;;10.70;1.00;;;;;;5071860;28;20048;-78
2023/04/19 09:02:45;;;;;;;2.40;1.48;;;10.90;1.00;;;;;;5069999;28;20048;-78
2023/04/19 09:05:13;;;;;;;2.95;1.90;;;11.10;1.00;;;;;;5055450;28;20131;-79
2023/04/19 09:07:39;;;;;;;2.08;1.50;;;11.30;1.00;;;;;;5073023;28;20075;-78
2023/04/19 09:10:14;;;;;;;9.35;2.05;;;11.40;1.00;;;;;;5073328;28;20075;-79
2023/04/19 09:12:40;;;;;;;4.28;1.50;;;11.70;1.00;;;;;;5054248;28;20043;-80
2023/04/19 09:15:08;;;;;;;3.70;1.85;;;12.50;1.00;;;;;;5070704;28;20114;-78
2023/04/19 09:17:39;;;;;;;3.92;1.52;;;13.80;1.00;;;;;;5059602;28;20097;-80
2023/04/19 09:20:06;;;;;;;3.22;1.85;;;14.80;1.00;;;;;;5054414;28;20047;-79
2023/04/19 09:22:32;;;;;;;3.97;1.60;;;15.80;1.00;;;;;;5054554;28;20046;-83
2023/04/19 09:24:59;;;;;;;2.25;1.40;;;16.30;1.00;;;;;;5071030;28;20059;-80
2023/04/19 09:27:35;;;;;;;2.05;1.27;;;17.00;1.00;;;;;;5071489;28;20050;-79
2023/04/19 09:30:02;;;;;;;2.35;1.40;;;17.10;1.00;;;;;;5071108;28;20047;-79
2023/04/19 09:32:29;;;;;;;2.90;1.60;;;17.60;1.00;;;;;;5054751;28;20146;-79
2023/04/19 09:34:56;;;;;;;4.00;1.50;;;17.90;1.00;;;;;;5070687;28;20134;-79
2023/04/19 09:37:23;;;;;;;2.80;1.63;;;18.40;1.00;;;;;;5055292;28;20056;-79
2023/04/19 09:39:50;;;;;;;1.70;1.27;;;19.10;1.00;;;;;;5053926;28;20055;-79
2023/04/19 09:42:19;;;;;;;2.90;1.20;;;19.50;1.00;;;;;;5054970;28;20048;-79
2023/04/19 09:45:00;;;;;;;1.42;1.20;;;19.50;1.00;;;;;;5067361;28;20045;-79
2023/04/19 09:47:28;;;;;;;1.77;1.33;;;19.50;1.00;;;;;;5043681;28;20494;-78
2023/04/19 09:50:04;;;;;;;2.92;1.38;;;19.10;1.00;;;;;;5071314;28;20658;-79
2023/04/19 09:52:32;;;;;;;2.63;1.52;;;19.20;1.00;;;;;;5069495;28;20371;-79
2023/04/19 09:55:05;;;;;;;3.10;1.40;;;19.10;1.00;;;;;;5054061;28;20048;-80
2023/04/19 09:57:32;;;;;;;2.30;1.25;;;19.30;1.00;;;;;;5054132;28;20051;-78
2023/04/19 09:59:59;;;;;;;1.48;1.17;;;19.30;1.00;;;;;;5054109;28;20052;-79
2023/04/19 10:02:33;;;;;;;3.53;1.40;;;19.90;1.00;;;;;;5077656;28;20116;-79
2023/04/19 10:04:59;;;;;;;2.53;1.23;;;20.10;1.00;;;;;;5057895;28;20052;-79
2023/04/19 10:07:26;;;;;;;2.13;1.15;;;20.50;1.00;;;;;;5049098;28;20056;-79
2023/04/19 10:09:55;;;;;;;2.50;1.17;;;20.70;1.00;;;;;;5056702;28;20092;-80
2023/04/19 10:12:25;;;;;;;1.55;0.98;;;20.80;1.00;;;;;;5053635;28;20048;-78
2023/04/19 10:14:56;;;;;;;2.00;1.20;;;20.70;1.00;;;;;;5055468;28;20401;-79
2023/04/19 10:17:23;;;;;;;3.95;1.20;;;20.70;1.00;;;;;;5049534;28;20654;-79
2023/04/19 10:19:55;;;;;;;1.85;1.30;;;20.80;1.00;;;;;;5070492;28;20073;-80
2023/04/19 10:22:22;;;;;;;1.58;1.17;;;21.20;1.00;;;;;;5077851;28;20108;-79
2023/04/19 10:25:14;;;;;;;2.00;1.15;;;21.70;1.00;;;;;;5073266;28;20406;-80
2023/04/19 10:27:50;;;;;;;1.33;0.85;;;21.50;1.00;;;;;;5057668;28;20051;-83
2023/04/19 10:30:20;;;;;;;1.80;0.80;;;21.60;1.00;;;;;;5063735;28;20044;-79
2023/04/19 10:32:52;;;;;;;1.17;0.88;;;21.30;1.00;;;;;;5055570;28;20095;-79
2023/04/19 10:35:24;;;;;;;3.40;1.00;;;21.40;1.00;;;;;;5075408;28;20051;-79
2023/04/19 10:38:06;;;;;;;1.83;1.00;;;21.60;1.00;;;;;;5056854;28;21362;-79
2023/04/19 10:40:53;;;;;;;1.13;1.00;;;21.80;1.00;;;;;;5054613;28;20052;-79
2023/04/19 10:43:20;;;;;;;1.83;0.88;;;22.40;1.00;;;;;;5038390;28;20079;-78
2023/04/19 10:45:46;;;;;;;1.80;0.90;;;22.50;1.00;;;;;;5068710;28;20044;-79
2023/04/19 10:48:32;;;;;;;3.03;0.82;;;22.50;1.00;;;;;;5066082;28;20055;-80
2023/04/19 10:51:20;;;;;;;1.00;0.90;;;22.70;1.00;;;;;;5075178;28;20060;-80
2023/04/19 10:53:47;;;;;;;4.43;1.90;;;22.40;1.00;;;;;;5072875;28;20313;-79
2023/04/19 10:56:15;;;;;;;2.35;0.70;;;22.20;1.00;;;;;;5054193;28;20125;-81
2023/04/19 10:59:12;;;;;;;3.08;0.80;;;22.00;1.00;;;;;;5054286;28;20500;-79
2023/04/19 11:01:38;;;;;;;;;;;22.20;1.00;;;;;;5063685;28;20048;-80
2023/04/19 11:04:08;;;;;;;;;;;22.60;1.00;;;;;;5072172;28;19983;-79
2023/04/19 11:06:36;;;;;;;1.45;0.95;;;22.50;1.00;;;;;;5073342;28;19931;-79
2023/04/19 11:09:04;;;;;;;0.77;0.77;;;22.70;1.00;;;;;;5055968;28;20047;-79
2023/04/19 11:11:36;;;;;;;1.50;1.15;;;23.10;1.00;;;;;;5057322;28;20064;-80
2023/04/19 11:14:08;;;;;;;1.40;0.88;;;23.40;1.00;;;;;;5054758;28;20097;-80
2023/04/19 11:16:34;;;;;;;2.38;0.90;;;23.60;1.00;;;;;;5056324;28;20191;-83
2023/04/19 11:19:00;;;;;;;2.50;0.90;;;23.50;1.00;;;;;;5043524;28;20699;-80
2023/04/19 11:21:26;;;;;;;1.10;0.90;;;23.30;1.00;;;;;;5036789;28;20410;-79
2023/04/19 11:24:06;;;;;;;33.65;16.10;;;23.10;1.00;;;;;;5072646;28;20124;-80
2023/04/19 11:26:32;;;;;;;2.55;1.58;;;23.00;1.00;;;;;;5073189;28;20060;-80
2023/04/19 11:28:59;;;;;;;1.42;1.17;;;23.40;1.00;;;;;;5073678;28;20120;-79
2023/04/19 11:31:24;;;;;;;1.63;1.23;;;23.10;1.00;;;;;;5043826;28;20048;-80
2023/04/19 11:33:50;;;;;;;3.08;1.05;;;22.70;1.00;;;;;;5063936;28;20048;-81
2023/04/19 11:36:16;;;;;;;1.13;1.02;;;23.10;1.00;;;;;;5066310;28;20399;-79
2023/04/19 11:38:48;;;;;;;3.33;1.20;;;23.20;1.00;;;;;;5046967;28;20097;-81
2023/04/19 11:41:14;;;;;;;2.08;1.17;;;23.40;1.00;;;;;;5069323;28;20048;-80
2023/04/19 11:43:40;;;;;;;1.60;0.95;;;23.70;1.00;;;;;;5073687;28;20044;-81
2023/04/19 11:46:06;;;;;;;2.17;1.40;;;23.30;1.00;;;;;;5045603;28;20394;-79
2023/04/19 11:48:32;;;;;;;3.15;1.33;;;23.70;1.00;;;;;;5073492;28;20047;-81
2023/04/19 11:50:59;;;;;;;1.83;1.30;;;23.90;1.00;;;;;;5055157;28;20787;-80
2023/04/19 11:53:26;;;;;;;3.33;1.30;;;24.00;1.00;;;;;;5044990;28;20185;-80
2023/04/19 11:56:06;;;;;;;3.45;1.42;;;24.10;1.00;;;;;;5067289;28;20594;-85
2023/04/19 11:58:56;;;;;;;2.20;1.58;;;23.50;1.00;;;;;;5072874;28;20051;-82
2023/04/19 12:01:23;;;;;;;2.80;1.73;;;23.70;1.00;;;;;;5080169;28;20481;-79
2023/04/19 12:03:50;;;;;;;2.25;1.60;;;23.70;1.00;;;;;;5055264;28;20048;-79
2023/04/19 12:06:28;;;;;;;2.15;1.42;;;24.00;1.00;;;;;;5072319;28;20553;-81
2023/04/19 12:08:55;;;;;;;3.10;1.77;;;24.60;1.00;;;;;;5055791;28;20048;-86
2023/04/19 12:11:23;;;;;;;2.70;2.03;;;24.80;1.00;;;;;;5072696;28;20044;-80
2023/04/19 12:14:18;;;;;;;3.55;1.75;;;25.10;1.00;;;;;;5069438;28;20044;-80
2023/04/19 12:16:44;;;;;;;2.30;1.55;;;25.70;1.00;;;;;;5069941;28;20050;-79
2023/04/19 12:19:21;;;;;;;2.10;1.48;;;25.70;1.00;;;;;;5055316;28;20538;-80
2023/04/19 12:21:47;;;;;;;3.08;1.95;;;25.20;1.00;;;;;;5071810;28;20087;-80
2023/04/19 12:24:16;;;;;;;2.30;1.50;;;24.90;1.00;;;;;;5055557;28;20071;-80
2023/04/19 12:26:55;;;;;;;2.08;1.45;;;24.70;1.00;;;;;;5070408;28;20064;-80
2023/04/19 12:29:21;;;;;;;2.92;1.85;;;24.50;1.00;;;;;;5059436;28;20044;-82
2023/04/19 12:31:47;;;;;;;3.03;2.05;;;24.50;1.00;;;;;;5052527;28;20583;-80
2023/04/19 12:34:13;;;;;;;2.10;1.80;;;24.40;1.00;;;;;;5065351;28;20058;-80
2023/04/19 12:36:38;;;;;;;2.78;1.70;;;24.60;1.00;;;;;;5056649;28;20052;-82
2023/04/19 12:39:04;;;;;;;4.85;1.70;;;24.70;1.00;;;;;;5072332;28;20048;-80
2023/04/19 12:41:30;;;;;;;2.40;1.80;;;24.80;1.00;;;;;;5055613;28;20101;-79
2023/04/19 12:43:56;;;;;;;2.30;1.80;;;24.60;1.00;;;;;;5071707;28;20044;-82
2023/04/19 12:46:21;;;;;;;5.55;1.95;;;24.50;1.00;;;;;;5034281;28;20052;-79
2023/04/19 12:48:47;;;;;;;2.80;1.88;;;24.80;1.00;;;;;;5065732;28;20508;-81
2023/04/19 12:51:13;;;;;;;2.70;1.58;;;24.50;1.00;;;;;;5067003;28;20047;-79
2023/04/19 12:53:40;;;;;;;2.67;1.70;;;23.90;1.00;;;;;;5061405;28;20079;-80
2023/04/19 12:56:06;;;;;;;2.90;1.83;;;23.60;1.00;;;;;;5063466;28;20048;-79
2023/04/19 12:58:32;;;;;;;3.33;1.80;;;23.70;1.00;;;;;;5068322;28;20056;-80